Great Challenger — VRRC8 — position and weather

sailwx.info

Track history (hours):
 
Tides and Currents Weather Stations Pressure Air Temp Water Temp Dewpoint Dewpoint Depression Visibility Wind Speed Wind Dir Waves Ship Positions

Great Challenger

Last reported at 2017-Dec-17 12:34 UTC. Time now 2017-Dec-18 20:38 UTC.
Position N 50°58' W 057°48'.

Length 289 m; draft 10.8 m.

Type: Cargo ship. MMSI: 477121900.

Date/timePositionNaut miles runAvg speedWind from/ knotsBaromVisibWave heightAir tempDewpointWater temp
2017-Dec-17 12:34N 50°58' W 057°48'112.7
2017-Dec-17 12:27N 50°59' W 057°46'612.6
2017-Dec-17 12:00N 51°03' W 057°39'712.6
2017-Dec-17 11:27N 51°08' W 057°31'  
2017-Dec-08 06:53N 58°42' W 003°45'10 7.4
2017-Dec-08 05:34N 58°43' W 003°26'1 9.4
2017-Dec-08 05:30N 58°43' W 003°25'611.3
2017-Dec-08 05:00N 58°44' W 003°14'713.5
2017-Dec-08 04:30N 58°41' W 003°02'510.5
2017-Dec-08 04:00N 58°37' W 002°56'4 7.9
2017-Dec-08 03:30N 58°33' W 002°52'4 8.4
2017-Dec-08 03:00N 58°30' W 002°47'  
Track history (hours):
 
Tides and Currents Weather Stations Pressure Air Temp Water Temp Dewpoint Dewpoint Depression Visibility Wind Speed Wind Dir Waves Ship Positions

Great Challenger

Last reported at 2017-Dec-17 12:34 UTC. Time now 2017-Dec-18 20:38 UTC.
Position N 50°58' W 057°48'.

Length 289 m; draft 10.8 m.

Type: Cargo ship. MMSI: 477121900.

Date/timePositionNaut miles runAvg speedWind from/ knotsBaromVisibWave heightAir tempDewpointWater temp
2017-Dec-17 12:34N 50°58' W 057°48'112.7
2017-Dec-17 12:27N 50°59' W 057°46'612.6
2017-Dec-17 12:00N 51°03' W 057°39'712.6
2017-Dec-17 11:27N 51°08' W 057°31'  
2017-Dec-08 06:53N 58°42' W 003°45'10 7.4
2017-Dec-08 05:34N 58°43' W 003°26'1 9.4
2017-Dec-08 05:30N 58°43' W 003°25'611.3
2017-Dec-08 05:00N 58°44' W 003°14'713.5
2017-Dec-08 04:30N 58°41' W 003°02'510.5
2017-Dec-08 04:00N 58°37' W 002°56'4 7.9
2017-Dec-08 03:30N 58°33' W 002°52'4 8.4
2017-Dec-08 03:00N 58°30' W 002°47'  

Dump ship's entire track history